createdAt,value
2023-12-05T00:00:27.927Z,87
2023-12-05T00:05:29.596Z,87
2023-12-05T00:10:31.290Z,87
2023-12-05T00:15:32.614Z,87
2023-12-05T00:20:34.164Z,88
2023-12-05T00:25:35.364Z,88
2023-12-05T00:30:37.179Z,88
2023-12-05T00:35:39.240Z,88
2023-12-05T00:40:41.124Z,88
2023-12-05T00:45:42.744Z,88
2023-12-05T00:50:46.075Z,87
2023-12-05T00:55:45.354Z,88
2023-12-05T01:00:46.776Z,87
2023-12-05T01:05:48.604Z,88
2023-12-05T01:10:49.723Z,88
2023-12-05T01:15:51.508Z,90
2023-12-05T01:20:53.041Z,91
2023-12-05T01:25:55.030Z,90
2023-12-05T01:30:56.566Z,89
2023-12-05T01:35:58.498Z,91
2023-12-05T01:41:00.142Z,90
2023-12-05T01:46:01.551Z,90
2023-12-05T01:51:03.471Z,91
2023-12-05T01:56:05.316Z,91
2023-12-05T02:01:06.861Z,91
2023-12-05T02:06:08.237Z,90
2023-12-05T02:11:10.465Z,91
2023-12-05T02:16:11.677Z,91
2023-12-05T02:21:13.142Z,92
2023-12-05T02:26:15.057Z,92
2023-12-05T02:31:21.484Z,92
2023-12-05T02:36:18.208Z,92
2023-12-05T02:41:19.724Z,92
2023-12-05T02:46:21.437Z,93
2023-12-05T02:51:22.922Z,94
2023-12-05T02:56:25.002Z,94
2023-12-05T03:01:27.102Z,95
2023-12-05T03:06:28.358Z,95
2023-12-05T03:11:30.342Z,94
2023-12-05T03:16:31.752Z,94
2023-12-05T03:21:33.859Z,94
2023-12-05T03:26:35.048Z,95
2023-12-05T03:31:37.011Z,95
2023-12-05T03:36:38.434Z,95
2023-12-05T03:41:39.564Z,94
2023-12-05T03:46:41.310Z,94
2023-12-05T03:51:43.145Z,94
2023-12-05T03:56:45.005Z,95
2023-12-05T04:01:46.443Z,96
2023-12-05T04:06:48.340Z,94
2023-12-05T04:11:49.714Z,94
2023-12-05T04:16:51.157Z,93
2023-12-05T04:21:52.654Z,93
2023-12-05T04:26:54.062Z,93
2023-12-05T04:31:55.962Z,94
2023-12-05T04:36:57.895Z,94
2023-12-05T04:41:59.965Z,93
2023-12-05T04:47:01.361Z,93
2023-12-05T04:52:02.826Z,94
2023-12-05T04:57:04.116Z,94
2023-12-05T05:02:06.165Z,95
2023-12-05T05:07:07.930Z,96
2023-12-05T05:12:09.496Z,95
2023-12-05T05:17:11.662Z,94
2023-12-05T05:22:13.527Z,93
2023-12-05T05:27:14.951Z,93
2023-12-05T05:32:16.626Z,93
2023-12-05T05:37:18.561Z,94
2023-12-05T05:42:20.088Z,94
2023-12-05T05:47:21.869Z,93
2023-12-05T05:52:23.583Z,93
2023-12-05T05:57:25.592Z,93
2023-12-05T06:02:27.383Z,92
2023-12-05T06:07:28.988Z,92
2023-12-05T06:12:30.169Z,92
2023-12-05T06:17:31.629Z,92
2023-12-05T06:22:32.814Z,92
2023-12-05T06:27:34.196Z,92
2023-12-05T06:32:36.202Z,92
2023-12-05T06:37:38.104Z,92
2023-12-05T06:42:39.447Z,93
2023-12-05T06:47:41.019Z,92
2023-12-05T06:52:42.302Z,92
2023-12-05T07:07:47.791Z,90
2023-12-05T07:22:59.004Z,89
2023-12-05T07:28:00.624Z,89
2023-12-05T07:43:04.991Z,91
2023-12-05T07:53:08.408Z,91
2023-12-05T08:08:12.560Z,95
2023-12-05T08:28:18.960Z,89
2023-12-05T08:38:22.683Z,86
2023-12-05T09:33:42.789Z,82
2023-12-05T09:38:44.411Z,79
2023-12-05T09:43:46.127Z,77
2023-12-05T09:48:47.523Z,76
2023-12-05T09:53:49.134Z,76
2023-12-05T09:58:50.498Z,75
2023-12-05T10:03:52.263Z,74
2023-12-05T10:08:53.795Z,75
2023-12-05T10:13:55.562Z,74
2023-12-05T10:18:57.648Z,74
2023-12-05T10:23:59.184Z,73
2023-12-05T10:29:00.716Z,69
2023-12-05T10:34:02.595Z,65
2023-12-05T10:39:04.290Z,65
2023-12-05T10:44:06.160Z,58
2023-12-05T10:49:07.666Z,52
2023-12-05T10:54:09.194Z,51
2023-12-05T10:59:11.089Z,53
2023-12-05T11:04:12.846Z,53
2023-12-05T11:09:14.436Z,54
2023-12-05T11:14:15.940Z,56
2023-12-05T11:19:17.991Z,58
2023-12-05T11:24:19.235Z,60
2023-12-05T11:29:21.088Z,61
2023-12-05T11:34:22.884Z,62
2023-12-05T11:39:24.500Z,64
2023-12-05T11:44:26.348Z,65
2023-12-05T11:49:28.413Z,66
2023-12-05T11:54:30.523Z,68
2023-12-05T11:59:32.556Z,68
2023-12-05T12:04:34.513Z,69
2023-12-05T12:09:35.725Z,70
2023-12-05T12:14:37.980Z,71
2023-12-05T12:19:39.915Z,71
2023-12-05T12:24:42.029Z,72
2023-12-05T12:29:43.385Z,72
2023-12-05T12:34:44.921Z,72
2023-12-05T12:39:47.128Z,72
2023-12-05T12:44:48.368Z,72
2023-12-05T12:49:49.625Z,73
2023-12-05T12:54:51.038Z,73
2023-12-05T13:00:28.135Z,73
2023-12-05T13:04:54.436Z,73
2023-12-05T13:09:56.196Z,73
2023-12-05T13:14:57.399Z,74
2023-12-05T13:19:59.546Z,75
2023-12-05T13:25:01.417Z,75
2023-12-05T13:30:02.604Z,76
2023-12-05T13:35:04.008Z,76
2023-12-05T13:40:05.961Z,77
2023-12-05T13:45:08.064Z,77
2023-12-05T13:50:09.896Z,78
2023-12-05T13:55:11.209Z,78
2023-12-05T14:00:12.880Z,79
2023-12-05T14:05:14.889Z,79
2023-12-05T14:10:16.197Z,80
2023-12-05T14:15:17.474Z,80
2023-12-05T14:20:18.740Z,81
2023-12-05T14:25:20.410Z,81
2023-12-05T14:30:22.496Z,81
2023-12-05T14:35:24.307Z,82
2023-12-05T14:40:25.905Z,82
2023-12-05T14:45:27.204Z,82
2023-12-05T14:50:29.239Z,82
2023-12-05T14:55:30.571Z,82
2023-12-05T15:00:31.917Z,82
2023-12-05T15:05:34.030Z,83
2023-12-05T15:10:35.339Z,83
2023-12-05T15:15:36.940Z,83
2023-12-05T15:20:38.360Z,84
2023-12-05T15:25:40.444Z,84
2023-12-05T15:30:41.705Z,84
2023-12-05T15:35:42.888Z,84
2023-12-05T15:40:44.276Z,84
2023-12-05T15:45:46.091Z,85
2023-12-05T15:50:48.287Z,85
2023-12-05T15:55:49.512Z,85
2023-12-05T16:00:58.347Z,85
2023-12-05T16:05:53.145Z,85
2023-12-05T16:10:54.649Z,86
2023-12-05T16:15:56.523Z,86
2023-12-05T16:20:57.710Z,86
2023-12-05T16:25:59.260Z,86
2023-12-05T16:31:00.889Z,86
2023-12-05T16:36:02.400Z,87
2023-12-05T16:41:04.441Z,87
2023-12-05T16:46:05.948Z,87
2023-12-05T16:51:07.527Z,88
2023-12-05T16:56:09.102Z,87
2023-12-05T17:01:10.963Z,87
2023-12-05T17:06:12.655Z,87
2023-12-05T17:11:13.960Z,88
2023-12-05T17:16:15.350Z,88
2023-12-05T17:21:17.425Z,92
2023-12-05T17:26:19.505Z,93
2023-12-05T17:31:20.896Z,93
2023-12-05T17:36:24.129Z,91
2023-12-05T17:41:23.641Z,90
2023-12-05T17:46:25.476Z,89
2023-12-05T17:51:27.325Z,88
2023-12-05T17:56:28.772Z,85
2023-12-05T18:01:30.544Z,84
2023-12-05T18:06:32.280Z,84
2023-12-05T18:11:34.233Z,83
2023-12-05T18:16:36.335Z,83
2023-12-05T18:21:38.052Z,83
2023-12-05T18:26:39.633Z,83
2023-12-05T18:31:41.075Z,82
2023-12-05T18:36:43.119Z,82
2023-12-05T18:41:44.456Z,82
2023-12-05T18:46:45.983Z,82
2023-12-05T18:51:47.228Z,82
2023-12-05T18:56:49.350Z,83
2023-12-05T19:01:50.795Z,83
2023-12-05T19:06:52.037Z,83
2023-12-05T19:11:53.885Z,83
2023-12-05T19:16:55.585Z,83
2023-12-05T19:21:57.371Z,83
2023-12-05T19:26:58.681Z,84
2023-12-05T19:31:59.980Z,84
2023-12-05T19:37:02.056Z,84
2023-12-05T19:42:04.159Z,85
2023-12-05T19:47:05.737Z,86
2023-12-05T19:52:07.324Z,85
2023-12-05T19:57:08.829Z,87
2023-12-05T20:02:10.712Z,88
2023-12-05T20:07:12.469Z,86
2023-12-05T20:12:14.508Z,85
2023-12-05T20:17:15.859Z,85
2023-12-05T20:22:17.662Z,85
2023-12-05T20:27:19.686Z,86
2023-12-05T20:32:20.915Z,86
2023-12-05T20:37:22.620Z,86
2023-12-05T20:42:26.391Z,85
2023-12-05T20:47:26.421Z,85
2023-12-05T20:52:27.741Z,85
2023-12-05T20:57:29.321Z,85
2023-12-05T21:02:31.409Z,86
2023-12-05T21:07:33.730Z,86
2023-12-05T21:12:35.449Z,85
2023-12-05T21:17:36.770Z,84
2023-12-05T21:22:37.988Z,84
2023-12-05T21:27:39.356Z,84
2023-12-05T21:32:40.614Z,84
2023-12-05T21:42:43.564Z,85
2023-12-05T23:03:08.565Z,85
2023-12-05T23:23:15.214Z,86
2023-12-05T23:28:19.194Z,86
